createdAt,value
2022-09-03T00:00:11.992Z,47.00
2022-09-03T00:02:52.740Z,47.30
2022-09-03T00:05:23.520Z,47.40
2022-09-03T00:08:14.689Z,47.60
2022-09-03T00:10:44.974Z,48.00
2022-09-03T00:13:34.070Z,47.90
2022-09-03T00:16:05.459Z,48.20
2022-09-03T00:18:35.154Z,48.30
2022-09-03T00:21:10.330Z,48.30
2022-09-03T00:23:42.414Z,48.40
2022-09-03T00:26:12.948Z,48.50
2022-09-03T00:28:55.907Z,48.60
2022-09-03T00:31:39.252Z,48.70
2022-09-03T00:34:23.238Z,48.80
2022-09-03T00:36:51.120Z,48.90
2022-09-03T00:39:21.114Z,49.00
2022-09-03T00:42:26.699Z,49.00
2022-09-03T00:45:00.974Z,49.20
2022-09-03T00:47:52.062Z,49.30
2022-09-03T00:50:41.535Z,49.90
2022-09-03T00:53:23.180Z,49.50
2022-09-03T00:56:02.795Z,49.50
2022-09-03T00:58:48.626Z,49.60
2022-09-03T01:01:21.896Z,49.70
2022-09-03T01:04:11.231Z,49.60
2022-09-03T01:06:43.614Z,49.90
2022-09-03T01:09:29.724Z,49.80
2022-09-03T01:12:08.270Z,49.90
2022-09-03T01:14:44.390Z,50.00
2022-09-03T01:17:52.144Z,50.00
2022-09-03T01:20:35.545Z,50.30
2022-09-03T01:23:20.620Z,50.20
2022-09-03T01:25:55.895Z,50.20
2022-09-03T01:28:54.941Z,50.40
2022-09-03T01:31:48.918Z,51.20
2022-09-03T01:34:31.104Z,50.70
2022-09-03T01:37:28.280Z,50.80
2022-09-03T01:40:03.528Z,50.90
2022-09-03T01:42:50.874Z,50.90
2022-09-03T01:45:36.565Z,51.00
2022-09-03T01:48:13.347Z,50.90
2022-09-03T01:51:01.103Z,51.10
2022-09-03T01:53:35.291Z,51.10
2022-09-03T01:56:45.610Z,51.40
2022-09-03T01:59:35.128Z,51.50
2022-09-03T02:02:25.812Z,51.60
2022-09-03T02:05:14.300Z,51.70
2022-09-03T02:07:45.042Z,51.70
2022-09-03T02:10:17.143Z,51.60
2022-09-03T02:12:49.623Z,51.70
2022-09-03T02:15:21.111Z,51.70
2022-09-03T02:17:50.247Z,51.80
2022-09-03T02:20:22.000Z,51.90
2022-09-03T02:22:50.819Z,51.80
2022-09-03T02:25:44.016Z,51.90
2022-09-03T02:28:17.681Z,52.00
2022-09-03T02:30:55.156Z,52.10
2022-09-03T02:33:22.358Z,52.10
2022-09-03T02:35:49.546Z,52.20
2022-09-03T02:38:19.639Z,52.20
2022-09-03T02:40:47.605Z,52.40
2022-09-03T02:43:52.240Z,52.40
2022-09-03T02:46:27.844Z,52.60
2022-09-03T02:48:55.974Z,52.40
2022-09-03T02:51:23.408Z,52.50
2022-09-03T02:53:50.954Z,52.50
2022-09-03T02:56:18.431Z,52.50
2022-09-03T02:58:46.157Z,52.60
2022-09-03T03:01:23.875Z,52.60
2022-09-03T03:03:51.503Z,52.70
2022-09-03T03:06:21.032Z,52.70
2022-09-03T03:08:50.100Z,52.70
2022-09-03T03:11:20.340Z,52.60
2022-09-03T03:13:47.863Z,52.50
2022-09-03T03:16:17.093Z,52.40
2022-09-03T03:18:46.461Z,52.40
2022-09-03T03:21:18.465Z,52.40
2022-09-03T03:23:45.686Z,52.30
2022-09-03T03:26:15.756Z,52.40
2022-09-03T03:28:43.508Z,52.30
2022-09-03T03:31:16.930Z,52.30
2022-09-03T03:33:45.186Z,52.40
2022-09-03T03:36:15.369Z,52.50
2022-09-03T03:38:44.906Z,52.50
2022-09-03T03:41:19.203Z,52.50
2022-09-03T03:43:46.594Z,52.60
2022-09-03T03:46:15.405Z,52.60
2022-09-03T03:48:43.196Z,52.80
2022-09-03T03:51:10.938Z,52.80
2022-09-03T03:53:38.933Z,52.80
2022-09-03T03:56:12.751Z,52.80
2022-09-03T03:58:44.426Z,52.90
2022-09-03T04:01:15.363Z,52.90
2022-09-03T04:03:42.902Z,52.90
2022-09-03T04:06:11.383Z,52.80
2022-09-03T04:08:43.076Z,52.80
2022-09-03T04:11:14.025Z,52.80
2022-09-03T04:13:43.554Z,52.90
2022-09-03T04:16:16.836Z,52.90
2022-09-03T04:18:44.400Z,52.80
2022-09-03T04:21:33.174Z,52.90
2022-09-03T04:24:00.195Z,52.90
2022-09-03T04:26:32.923Z,53.20
2022-09-03T04:29:02.401Z,53.20
2022-09-03T04:31:30.213Z,53.40
2022-09-03T04:33:58.879Z,53.50
2022-09-03T04:36:28.559Z,53.40
2022-09-03T04:38:58.437Z,53.40
2022-09-03T04:41:27.794Z,53.40
2022-09-03T04:43:56.988Z,53.50
2022-09-03T04:46:26.782Z,53.40
2022-09-03T04:48:55.257Z,53.50
2022-09-03T04:51:27.418Z,53.60
2022-09-03T04:53:57.438Z,53.60
2022-09-03T04:56:27.815Z,53.70
2022-09-03T04:59:01.335Z,53.70
2022-09-03T05:01:31.044Z,53.80
2022-09-03T05:03:59.081Z,53.90
2022-09-03T05:06:26.979Z,54.50
2022-09-03T05:08:55.668Z,54.00
2022-09-03T05:11:23.871Z,54.10
2022-09-03T05:13:53.018Z,54.30
2022-09-03T05:16:21.573Z,54.30
2022-09-03T05:18:53.150Z,54.30
2022-09-03T05:21:20.363Z,54.40
2022-09-03T05:23:53.176Z,54.40
2022-09-03T05:26:36.647Z,54.40
2022-09-03T05:29:08.203Z,54.40
2022-09-03T05:31:39.320Z,54.30
2022-09-03T05:34:07.886Z,54.30
2022-09-03T05:36:37.040Z,54.50
2022-09-03T05:39:05.691Z,54.60
2022-09-03T05:41:36.343Z,54.70
2022-09-03T05:44:04.313Z,54.70
2022-09-03T05:46:33.480Z,54.80
2022-09-03T05:49:06.656Z,54.90
2022-09-03T05:51:35.821Z,55.10
2022-09-03T05:54:03.734Z,55.10
2022-09-03T05:56:33.153Z,55.30
2022-09-03T05:59:03.268Z,55.40
2022-09-03T06:01:41.289Z,55.40
2022-09-03T06:04:15.481Z,55.30
2022-09-03T06:06:47.338Z,55.20
2022-09-03T06:09:23.305Z,55.30
2022-09-03T06:11:52.665Z,55.40
2022-09-03T06:14:21.302Z,55.40
2022-09-03T06:16:50.227Z,55.40
2022-09-03T06:19:17.745Z,55.40
2022-09-03T06:21:46.649Z,55.40
2022-09-03T06:24:16.645Z,55.40
2022-09-03T06:26:45.643Z,55.30
2022-09-03T06:29:13.218Z,55.20
2022-09-03T06:31:40.451Z,55.20
2022-09-03T06:34:08.460Z,55.40
2022-09-03T06:36:35.546Z,55.50
2022-09-03T06:39:02.500Z,56.20
2022-09-03T06:41:33.177Z,55.50
2022-09-03T06:44:04.360Z,55.90
2022-09-03T06:46:35.325Z,55.60
2022-09-03T06:49:03.137Z,55.50
2022-09-03T06:51:32.109Z,55.00
2022-09-03T06:54:06.208Z,54.40
2022-09-03T06:56:39.961Z,52.90
2022-09-03T06:59:15.074Z,52.00
2022-09-03T07:01:46.261Z,51.30
2022-09-03T07:04:19.158Z,50.30
2022-09-03T07:06:47.405Z,48.30
2022-09-03T07:09:15.939Z,47.70
2022-09-03T07:11:48.089Z,46.00
2022-09-03T07:14:20.723Z,45.20
2022-09-03T07:16:49.902Z,44.10
2022-09-03T07:19:17.754Z,43.20
2022-09-03T07:21:50.101Z,41.30
2022-09-03T07:24:20.170Z,40.80
2022-09-03T07:26:49.210Z,40.10
2022-09-03T07:29:21.075Z,39.70
2022-09-03T07:31:53.565Z,40.50
2022-09-03T07:34:25.426Z,40.00
2022-09-03T07:36:54.035Z,39.60
2022-09-03T07:39:21.329Z,38.80
2022-09-03T07:41:48.534Z,39.30
2022-09-03T07:44:20.169Z,39.00
2022-09-03T07:46:51.447Z,38.60
2022-09-03T07:49:20.388Z,37.00
2022-09-03T07:51:50.824Z,36.50
2022-09-03T07:54:18.056Z,36.80
2022-09-03T07:56:45.243Z,36.00
2022-09-03T07:59:12.508Z,36.00
2022-09-03T08:01:41.541Z,35.10
2022-09-03T08:04:10.127Z,34.90
2022-09-03T08:06:38.251Z,35.10
2022-09-03T08:09:07.363Z,35.50
2022-09-03T08:11:38.013Z,34.60
2022-09-03T08:14:10.631Z,34.30
2022-09-03T08:16:49.439Z,34.70
2022-09-03T08:19:21.679Z,33.80
2022-09-03T08:21:49.270Z,34.00
2022-09-03T08:24:18.011Z,32.60
2022-09-03T08:26:51.326Z,32.60
2022-09-03T08:29:19.399Z,31.60
2022-09-03T08:31:46.998Z,32.20
2022-09-03T08:34:14.965Z,31.90
2022-09-03T08:36:42.037Z,31.90
2022-09-03T08:39:10.897Z,30.40
2022-09-03T08:41:53.497Z,30.00
2022-09-03T08:44:41.897Z,30.30
2022-09-03T08:47:16.099Z,29.80
2022-09-03T08:49:49.571Z,29.40
2022-09-03T08:52:28.693Z,29.00
2022-09-03T08:55:06.165Z,29.00
2022-09-03T08:57:41.950Z,29.20
2022-09-03T09:00:09.653Z,29.40
2022-09-03T09:03:17.994Z,28.90
2022-09-03T09:06:11.527Z,28.60
2022-09-03T09:08:48.847Z,28.90
2022-09-03T09:11:29.808Z,28.50
2022-09-03T09:14:03.995Z,28.90
2022-09-03T09:16:55.075Z,28.30
2022-09-03T09:19:34.206Z,28.40
2022-09-03T09:22:06.236Z,28.10
2022-09-03T09:24:55.471Z,28.40
2022-09-03T09:27:24.375Z,28.00
2022-09-03T09:29:53.692Z,28.40
2022-09-03T09:32:21.716Z,28.20
2022-09-03T09:34:52.306Z,28.20
2022-09-03T09:37:20.271Z,28.30
2022-09-03T09:39:59.616Z,27.80
2022-09-03T09:42:30.074Z,28.00
2022-09-03T09:44:57.073Z,27.90
2022-09-03T09:47:33.267Z,28.10
2022-09-03T09:50:02.769Z,28.10
2022-09-03T09:52:31.757Z,28.10
2022-09-03T09:55:13.728Z,28.40
2022-09-03T09:57:41.327Z,28.00
2022-09-03T10:00:13.088Z,28.00
2022-09-03T10:02:49.962Z,28.00
2022-09-03T10:05:25.009Z,27.90
2022-09-03T10:08:22.179Z,27.70
2022-09-03T10:10:52.004Z,27.70
2022-09-03T10:13:48.211Z,27.90
2022-09-03T10:16:28.156Z,27.70
2022-09-03T10:19:16.419Z,27.70
2022-09-03T10:21:58.312Z,27.50
2022-09-03T10:24:32.226Z,27.40
2022-09-03T10:26:59.321Z,27.70
2022-09-03T10:29:30.146Z,27.80
2022-09-03T10:32:07.767Z,27.50
2022-09-03T10:34:37.219Z,27.30
2022-09-03T10:37:23.214Z,27.30
2022-09-03T10:40:02.369Z,27.50
2022-09-03T10:42:29.583Z,27.80
2022-09-03T10:45:09.926Z,27.90
2022-09-03T10:48:10.648Z,27.60
2022-09-03T10:50:56.317Z,27.30
2022-09-03T10:53:26.520Z,27.40
2022-09-03T10:56:10.292Z,27.90
2022-09-03T10:59:15.470Z,28.20
2022-09-03T11:02:10.268Z,27.80
2022-09-03T11:04:56.677Z,27.90
2022-09-03T11:07:30.447Z,27.80
2022-09-03T11:10:06.525Z,28.00
2022-09-03T11:12:40.206Z,28.30
2022-09-03T11:15:32.549Z,28.50
2022-09-03T11:18:15.124Z,28.80
2022-09-03T11:20:43.996Z,29.10
2022-09-03T11:23:15.755Z,29.00
2022-09-03T11:25:53.756Z,28.90
2022-09-03T11:28:48.228Z,28.80
2022-09-03T11:31:36.595Z,28.90
2022-09-03T11:34:17.855Z,28.50
2022-09-03T11:36:50.832Z,28.40
2022-09-03T11:39:24.410Z,28.50
2022-09-03T11:42:06.828Z,28.10
2022-09-03T11:44:47.920Z,28.40
2022-09-03T11:47:42.403Z,28.30
2022-09-03T11:50:21.171Z,28.50
2022-09-03T11:52:52.449Z,28.70
2022-09-03T11:55:43.352Z,29.00
2022-09-03T11:58:20.924Z,29.10
2022-09-03T12:00:49.601Z,29.10
2022-09-03T12:03:18.088Z,29.40
2022-09-03T12:06:08.484Z,29.70
2022-09-03T12:08:50.670Z,29.60
2022-09-03T12:11:48.853Z,29.30
2022-09-03T12:14:58.154Z,29.20
2022-09-03T12:17:40.201Z,29.30
2022-09-03T12:20:18.655Z,29.20
2022-09-03T12:22:45.898Z,29.60
2022-09-03T12:25:15.317Z,29.70
2022-09-03T12:27:48.100Z,29.70
2022-09-03T12:30:22.169Z,29.90
2022-09-03T12:32:51.541Z,30.10
2022-09-03T12:38:18.511Z,30.00
2022-09-03T12:43:43.259Z,30.00
2022-09-03T12:46:17.462Z,30.20
2022-09-03T12:52:06.413Z,30.50
2022-09-03T12:54:37.302Z,30.20
2022-09-03T12:57:05.309Z,30.10
2022-09-03T12:59:35.394Z,30.00
2022-09-03T13:02:12.744Z,30.00
2022-09-03T13:04:41.297Z,30.20
2022-09-03T13:07:27.695Z,30.50
2022-09-03T13:10:04.967Z,30.60
2022-09-03T13:12:52.555Z,30.80
2022-09-03T13:15:25.724Z,30.80
2022-09-03T13:18:26.700Z,31.00
2022-09-03T13:21:31.679Z,30.30
2022-09-03T13:24:20.526Z,30.80
2022-09-03T13:27:41.811Z,30.70
2022-09-03T13:30:19.841Z,30.40
2022-09-03T13:33:11.784Z,30.10
2022-09-03T13:35:54.890Z,30.70
2022-09-03T13:38:23.058Z,30.70
2022-09-03T13:40:50.858Z,30.80
2022-09-03T13:43:35.109Z,31.40
2022-09-03T13:46:18.350Z,31.70
2022-09-03T13:49:05.815Z,31.70
2022-09-03T13:51:57.367Z,31.70
2022-09-03T13:54:48.696Z,32.20
2022-09-03T13:58:01.503Z,32.10
2022-09-03T14:00:46.318Z,32.10
2022-09-03T14:03:40.040Z,32.30
2022-09-03T14:06:32.097Z,32.50
2022-09-03T14:09:25.193Z,32.60
2022-09-03T14:12:38.680Z,32.70
2022-09-03T14:15:20.698Z,32.30
2022-09-03T14:18:03.070Z,32.20
2022-09-03T14:21:08.143Z,32.40
2022-09-03T14:23:53.411Z,32.60
2022-09-03T14:26:39.636Z,32.80
2022-09-03T14:29:17.569Z,33.10
2022-09-03T14:32:26.084Z,33.00
2022-09-03T14:35:12.891Z,32.80
2022-09-03T14:37:59.533Z,33.10
2022-09-03T14:40:46.811Z,33.40
2022-09-03T14:43:53.507Z,33.30
2022-09-03T14:46:35.730Z,33.40
2022-09-03T14:49:05.996Z,33.50
2022-09-03T14:51:52.566Z,33.70
2022-09-03T14:54:48.059Z,33.80
2022-09-03T14:57:19.178Z,33.80
2022-09-03T14:59:46.885Z,34.00
2022-09-03T15:02:42.740Z,34.10
2022-09-03T15:05:39.010Z,34.30
2022-09-03T15:08:19.014Z,34.60
2022-09-03T15:10:59.267Z,34.60
2022-09-03T15:13:30.119Z,34.40
2022-09-03T15:16:44.819Z,34.30
2022-09-03T15:19:43.555Z,34.50
2022-09-03T15:22:20.202Z,34.70
2022-09-03T15:25:03.386Z,34.60
2022-09-03T15:27:58.032Z,34.80
2022-09-03T15:30:41.236Z,35.10
2022-09-03T15:33:30.936Z,35.20
2022-09-03T15:36:18.189Z,35.40
2022-09-03T15:39:11.554Z,35.40
2022-09-03T15:42:02.537Z,35.50
2022-09-03T15:44:42.021Z,35.50
2022-09-03T15:47:14.444Z,35.30
2022-09-03T15:50:05.120Z,35.50
2022-09-03T15:52:41.276Z,35.60
2022-09-03T15:55:26.305Z,35.50
2022-09-03T15:58:09.110Z,35.50
2022-09-03T16:01:21.734Z,35.60
2022-09-03T16:04:31.462Z,36.40
2022-09-03T16:07:31.541Z,36.10
2022-09-03T16:10:25.407Z,36.10
2022-09-03T16:13:14.693Z,36.20
2022-09-03T16:15:49.900Z,36.10
2022-09-03T16:18:30.654Z,36.00
2022-09-03T16:21:07.700Z,36.20
2022-09-03T16:24:01.392Z,36.10
2022-09-03T16:26:37.963Z,36.30
2022-09-03T16:29:19.468Z,36.20
2022-09-03T16:32:15.105Z,36.10
2022-09-03T16:35:10.358Z,36.40
2022-09-03T16:37:59.239Z,36.40
2022-09-03T16:40:40.428Z,36.60
2022-09-03T16:43:41.097Z,36.80
2022-09-03T16:46:29.420Z,36.90
2022-09-03T16:49:17.133Z,36.90
2022-09-03T16:51:57.175Z,37.10
2022-09-03T16:54:55.654Z,37.10
2022-09-03T16:57:40.447Z,37.10
2022-09-03T17:00:19.880Z,37.10
2022-09-03T17:03:05.782Z,37.00
2022-09-03T17:06:00.903Z,37.00
2022-09-03T17:09:00.743Z,37.40
2022-09-03T17:11:39.769Z,37.30
2022-09-03T17:14:47.798Z,37.40
2022-09-03T17:17:41.103Z,37.60
2022-09-03T17:20:49.186Z,37.60
2022-09-03T17:23:54.209Z,37.90
2022-09-03T17:26:35.460Z,38.10
2022-09-03T17:29:18.329Z,38.00
2022-09-03T17:32:12.618Z,38.30
2022-09-03T17:34:58.290Z,38.30
2022-09-03T17:37:50.767Z,38.30
2022-09-03T17:40:53.675Z,38.50
2022-09-03T17:43:29.342Z,38.50
2022-09-03T17:46:05.100Z,38.60
2022-09-03T17:48:56.196Z,38.60
2022-09-03T17:51:46.596Z,39.00
2022-09-03T17:54:34.122Z,38.80
2022-09-03T17:57:20.600Z,38.90
2022-09-03T18:00:07.426Z,39.20
2022-09-03T18:03:15.851Z,39.90
2022-09-03T18:05:59.552Z,39.50
2022-09-03T18:09:01.295Z,39.40
2022-09-03T18:11:34.989Z,39.70
2022-09-03T18:14:13.467Z,39.50
2022-09-03T18:17:12.032Z,39.70
2022-09-03T18:20:33.375Z,40.00
2022-09-03T18:23:59.990Z,40.00
2022-09-03T18:27:05.034Z,39.90
2022-09-03T18:30:07.895Z,40.00
2022-09-03T18:32:53.314Z,40.20
2022-09-03T18:35:38.966Z,40.10
2022-09-03T18:38:25.317Z,40.20
2022-09-03T18:41:36.070Z,40.40
2022-09-03T18:44:30.928Z,40.50
2022-09-03T18:48:01.874Z,40.50
2022-09-03T18:51:07.931Z,40.70
2022-09-03T18:54:16.897Z,40.50
2022-09-03T18:57:09.595Z,40.60
2022-09-03T19:00:28.961Z,40.70
2022-09-03T19:03:36.515Z,40.90
2022-09-03T19:07:10.003Z,40.80
2022-09-03T19:10:04.163Z,41.30
2022-09-03T19:13:07.185Z,40.90
2022-09-03T19:16:39.358Z,41.20
2022-09-03T19:19:47.567Z,41.50
2022-09-03T19:22:51.720Z,41.40
2022-09-03T19:25:37.712Z,41.50
2022-09-03T19:28:35.612Z,41.80
2022-09-03T19:31:45.708Z,42.20
2022-09-03T19:34:43.659Z,41.80
2022-09-03T19:38:08.219Z,41.90
2022-09-03T19:41:32.046Z,42.30
2022-09-03T19:44:24.028Z,42.40
2022-09-03T19:47:14.664Z,42.60
2022-09-03T19:50:24.885Z,42.60
2022-09-03T19:53:29.246Z,42.80
2022-09-03T19:56:19.422Z,42.90
2022-09-03T19:59:10.563Z,42.80
2022-09-03T20:01:57.291Z,43.10
2022-09-03T20:04:55.042Z,43.20
2022-09-03T20:07:42.224Z,43.30
2022-09-03T20:10:25.355Z,43.50
2022-09-03T20:13:14.080Z,43.50
2022-09-03T20:16:07.334Z,43.70
2022-09-03T20:18:53.212Z,43.80
2022-09-03T20:21:46.514Z,44.20
2022-09-03T20:24:26.017Z,44.20
2022-09-03T20:27:27.503Z,44.30
2022-09-03T20:30:05.622Z,44.20
2022-09-03T20:32:35.485Z,45.00
2022-09-03T20:35:29.350Z,44.10
2022-09-03T20:38:09.225Z,44.50
2022-09-03T20:41:01.857Z,44.40
2022-09-03T20:43:29.730Z,44.50
2022-09-03T20:46:04.955Z,44.40
2022-09-03T20:48:51.311Z,44.50
2022-09-03T20:51:22.908Z,44.60
2022-09-03T20:54:30.047Z,44.90
2022-09-03T20:57:09.711Z,44.70
2022-09-03T21:00:12.864Z,44.70
2022-09-03T21:02:57.197Z,45.00
2022-09-03T21:05:31.575Z,44.90
2022-09-03T21:08:30.053Z,44.80
2022-09-03T21:10:59.007Z,44.90
2022-09-03T21:14:04.711Z,45.00
2022-09-03T21:16:54.209Z,45.40
2022-09-03T21:19:21.238Z,45.20
2022-09-03T21:21:58.686Z,45.10
2022-09-03T21:24:51.229Z,45.10
2022-09-03T21:27:24.399Z,45.30
2022-09-03T21:30:02.720Z,45.30
2022-09-03T21:32:36.735Z,45.50
2022-09-03T21:35:16.536Z,45.50
2022-09-03T21:37:55.761Z,45.60
2022-09-03T21:40:29.198Z,45.70
2022-09-03T21:43:02.363Z,45.70
2022-09-03T21:45:39.694Z,45.80
2022-09-03T21:48:12.931Z,45.80
2022-09-03T21:51:07.700Z,45.90
2022-09-03T21:53:57.448Z,46.10
2022-09-03T21:56:46.539Z,46.10
2022-09-03T21:59:25.959Z,46.20
2022-09-03T22:02:18.205Z,46.30
2022-09-03T22:04:45.286Z,46.40
2022-09-03T22:07:44.456Z,46.40
2022-09-03T22:10:40.003Z,46.60
2022-09-03T22:13:15.062Z,46.80
2022-09-03T22:15:48.389Z,46.70
2022-09-03T22:18:29.606Z,46.60
2022-09-03T22:21:44.367Z,46.80
2022-09-03T22:25:15.117Z,47.70
2022-09-03T22:27:51.084Z,47.20
2022-09-03T22:30:21.700Z,47.10
2022-09-03T22:33:15.997Z,47.10
2022-09-03T22:35:59.386Z,47.20
2022-09-03T22:38:55.372Z,47.20
2022-09-03T22:41:41.149Z,47.30
2022-09-03T22:44:44.581Z,47.30
2022-09-03T22:47:25.771Z,47.50
2022-09-03T22:50:07.037Z,47.60
2022-09-03T22:53:17.099Z,47.60
2022-09-03T22:56:00.292Z,48.00
2022-09-03T22:58:34.548Z,47.80
2022-09-03T23:01:32.116Z,47.80
2022-09-03T23:04:27.512Z,47.90
2022-09-03T23:07:02.157Z,48.00
2022-09-03T23:09:36.495Z,47.90
2022-09-03T23:12:11.097Z,48.10
2022-09-03T23:14:49.157Z,48.20
2022-09-03T23:20:14.024Z,48.20
2022-09-03T23:22:59.677Z,48.40
2022-09-03T23:25:43.851Z,48.50
2022-09-03T23:28:49.273Z,48.60
2022-09-03T23:31:22.636Z,49.00
2022-09-03T23:33:52.623Z,48.80
2022-09-03T23:37:05.903Z,48.80
2022-09-03T23:39:40.013Z,48.90
2022-09-03T23:42:10.342Z,49.00
2022-09-03T23:44:52.021Z,49.70
2022-09-03T23:47:41.737Z,49.30
2022-09-03T23:50:28.124Z,49.40
2022-09-03T23:53:07.354Z,49.50
2022-09-03T23:55:37.217Z,49.70
2022-09-03T23:58:25.719Z,49.80
